createdAt,value
2022-11-15T00:01:34.118Z,12.40
2022-11-15T00:04:22.932Z,10.35
2022-11-15T00:07:18.024Z,10.73
2022-11-15T00:10:15.501Z,7.25
2022-11-15T00:13:07.456Z,8.10
2022-11-15T00:15:59.144Z,12.30
2022-11-15T00:18:50.600Z,11.02
2022-11-15T00:21:40.604Z,9.18
2022-11-15T00:24:28.701Z,8.43
2022-11-15T00:27:16.792Z,11.15
2022-11-15T00:30:04.269Z,17.15
2022-11-15T00:32:52.970Z,11.93
2022-11-15T00:35:41.093Z,13.52
2022-11-15T00:38:34.971Z,18.58
2022-11-15T00:41:23.522Z,13.98
2022-11-15T00:44:11.767Z,19.48
2022-11-15T00:46:59.575Z,20.73
2022-11-15T00:49:47.505Z,12.93
2022-11-15T00:52:35.697Z,15.15
2022-11-15T00:55:24.242Z,12.60
2022-11-15T00:58:13.051Z,11.23
2022-11-15T01:01:09.067Z,16.17
2022-11-15T01:04:01.081Z,15.90
2022-11-15T01:06:50.119Z,14.77
2022-11-15T01:09:38.863Z,14.95
2022-11-15T01:12:28.008Z,15.90
2022-11-15T01:15:15.832Z,11.88
2022-11-15T01:18:03.985Z,17.33
2022-11-15T01:20:52.320Z,21.45
2022-11-15T01:23:40.099Z,17.85
2022-11-15T01:26:29.120Z,17.48
2022-11-15T01:29:19.162Z,17.73
2022-11-15T01:32:07.088Z,14.95
2022-11-15T01:34:55.027Z,19.20
2022-11-15T01:37:43.072Z,16.33
2022-11-15T01:40:30.807Z,14.32
2022-11-15T01:43:24.220Z,15.52
2022-11-15T01:46:25.429Z,11.63
2022-11-15T01:49:17.884Z,13.18
2022-11-15T01:52:10.493Z,11.30
2022-11-15T01:55:04.392Z,11.05
2022-11-15T01:57:56.611Z,9.45
2022-11-15T02:00:44.513Z,12.25
2022-11-15T02:03:44.692Z,9.38
2022-11-15T02:06:33.294Z,7.63
2022-11-15T02:09:22.240Z,8.55
2022-11-15T02:12:12.220Z,7.80
2022-11-15T02:15:04.221Z,7.93
2022-11-15T02:18:05.933Z,9.15
2022-11-15T02:21:14.513Z,7.18
2022-11-15T02:24:43.811Z,9.48
2022-11-15T02:28:07.952Z,7.65
2022-11-15T02:31:00.207Z,6.87
2022-11-15T02:33:57.363Z,10.20
2022-11-15T02:36:54.437Z,8.05
2022-11-15T02:39:49.543Z,7.68
2022-11-15T02:43:06.970Z,9.88
2022-11-15T02:46:05.536Z,7.20
2022-11-15T02:48:53.996Z,7.55
2022-11-15T02:51:43.359Z,10.05
2022-11-15T02:54:34.970Z,8.63
2022-11-15T02:57:34.848Z,8.48
2022-11-15T03:00:27.802Z,8.15
2022-11-15T03:03:35.723Z,9.18
2022-11-15T03:06:31.720Z,8.15
2022-11-15T03:09:29.448Z,9.48
2022-11-15T03:12:23.684Z,9.63
2022-11-15T03:15:18.434Z,9.07
2022-11-15T03:21:03.135Z,10.88
2022-11-15T03:23:52.952Z,10.38
2022-11-15T03:26:43.768Z,10.02
2022-11-15T03:29:39.009Z,11.98
2022-11-15T03:32:30.632Z,11.63
2022-11-15T03:35:23.596Z,11.73
2022-11-15T03:38:19.567Z,10.77
2022-11-15T03:41:17.436Z,10.27
2022-11-15T03:44:16.797Z,12.18
2022-11-15T03:47:10.829Z,9.88
2022-11-15T03:50:03.748Z,10.35
2022-11-15T03:52:52.696Z,11.98
2022-11-15T03:55:42.984Z,9.52
2022-11-15T03:58:31.382Z,16.55
2022-11-15T04:01:19.677Z,10.35
2022-11-15T04:04:08.920Z,12.48
2022-11-15T04:06:57.922Z,14.27
2022-11-15T04:10:06.166Z,12.63
2022-11-15T04:12:55.393Z,14.25
2022-11-15T04:15:43.852Z,12.70
2022-11-15T04:18:32.318Z,16.92
2022-11-15T04:21:38.126Z,12.48
2022-11-15T04:24:26.256Z,15.90
2022-11-15T04:27:14.924Z,14.68
2022-11-15T04:30:08.544Z,18.63
2022-11-15T04:32:57.671Z,17.65
2022-11-15T04:36:07.066Z,17.38
2022-11-15T04:38:55.217Z,20.35
2022-11-15T04:41:44.109Z,18.10
2022-11-15T04:44:35.055Z,16.50
2022-11-15T04:47:24.327Z,19.65
2022-11-15T04:50:13.805Z,22.25
2022-11-15T04:53:03.071Z,19.92
2022-11-15T04:55:51.852Z,17.27
2022-11-15T04:58:39.715Z,22.67
2022-11-15T05:01:28.206Z,20.48
2022-11-15T05:04:24.611Z,19.13
2022-11-15T05:07:13.408Z,21.73
2022-11-15T05:10:02.078Z,23.45
2022-11-15T05:12:52.925Z,23.17
2022-11-15T05:15:46.593Z,26.35
2022-11-15T05:18:41.871Z,33.08
2022-11-15T05:21:31.648Z,37.80
2022-11-15T05:24:20.024Z,20.25
2022-11-15T05:27:11.357Z,24.83
2022-11-15T05:29:59.173Z,21.60
2022-11-15T05:32:50.148Z,22.73
2022-11-15T05:35:51.716Z,22.55
2022-11-15T05:38:43.270Z,20.45
2022-11-15T05:41:54.242Z,26.48
2022-11-15T05:44:48.262Z,22.55
2022-11-15T05:47:41.693Z,22.45
2022-11-15T05:50:30.426Z,21.40
2022-11-15T05:53:22.315Z,24.52
2022-11-15T05:56:13.585Z,24.33
2022-11-15T05:59:08.733Z,21.33
2022-11-15T06:01:59.442Z,23.95
2022-11-15T06:04:47.938Z,24.27
2022-11-15T06:07:37.860Z,26.73
2022-11-15T06:10:26.501Z,29.52
2022-11-15T06:13:16.512Z,29.88
2022-11-15T06:16:07.595Z,25.70
2022-11-15T06:18:58.819Z,30.65
2022-11-15T06:21:47.383Z,23.88
2022-11-15T06:24:45.221Z,35.65
2022-11-15T06:27:36.689Z,28.13
2022-11-15T06:30:30.213Z,25.45
2022-11-15T06:36:24.006Z,30.13
2022-11-15T06:39:13.332Z,28.88
2022-11-15T06:42:04.747Z,28.90
2022-11-15T06:45:00.028Z,28.30
2022-11-15T06:47:54.846Z,27.20
2022-11-15T06:50:43.532Z,25.75
2022-11-15T06:53:34.193Z,27.30
2022-11-15T06:56:22.416Z,23.45
2022-11-15T06:59:12.203Z,23.60
2022-11-15T07:02:01.436Z,23.40
2022-11-15T07:04:53.991Z,22.33
2022-11-15T07:07:42.067Z,19.33
2022-11-15T07:10:30.389Z,21.25
2022-11-15T07:13:18.645Z,19.17
2022-11-15T07:16:08.634Z,18.15
2022-11-15T07:18:58.482Z,19.50
2022-11-15T07:21:50.319Z,18.02
2022-11-15T07:24:40.142Z,20.20
2022-11-15T07:27:33.810Z,20.92
2022-11-15T07:30:24.860Z,20.13
2022-11-15T07:33:15.767Z,22.38
2022-11-15T07:36:04.797Z,20.10
2022-11-15T07:38:59.598Z,19.48
2022-11-15T07:42:16.609Z,20.52
2022-11-15T07:45:08.237Z,21.73
2022-11-15T07:47:58.947Z,24.35
2022-11-15T07:50:51.169Z,22.85
2022-11-15T07:53:45.217Z,21.65
2022-11-15T07:56:43.036Z,22.60
2022-11-15T07:59:33.306Z,23.10
2022-11-15T08:02:25.345Z,26.52
2022-11-15T08:05:21.091Z,28.23
2022-11-15T08:08:10.472Z,25.88
2022-11-15T08:11:00.857Z,22.05
2022-11-15T08:13:51.011Z,25.95
2022-11-15T08:16:40.039Z,25.67
2022-11-15T08:19:28.419Z,25.33
2022-11-15T08:22:18.849Z,26.48
2022-11-15T08:25:07.874Z,27.90
2022-11-15T08:28:06.769Z,29.35
2022-11-15T08:30:56.829Z,30.52
2022-11-15T08:33:45.683Z,37.15
2022-11-15T08:36:44.602Z,26.35
2022-11-15T08:39:36.059Z,26.42
2022-11-15T08:42:26.569Z,26.30
2022-11-15T08:45:18.941Z,24.65
2022-11-15T08:48:09.186Z,26.88
2022-11-15T08:50:59.723Z,24.67
2022-11-15T08:53:49.403Z,21.10
2022-11-15T08:56:41.036Z,20.73
2022-11-15T08:59:32.172Z,20.75
2022-11-15T09:02:21.309Z,23.27
2022-11-15T09:05:11.905Z,22.88
2022-11-15T09:08:00.095Z,22.95
2022-11-15T09:10:51.023Z,23.77
2022-11-15T09:13:40.998Z,22.92
2022-11-15T09:16:29.726Z,22.95
2022-11-15T09:19:39.152Z,25.75
2022-11-15T09:22:32.312Z,24.13
2022-11-15T09:25:20.694Z,23.88
2022-11-15T09:28:10.068Z,24.65
2022-11-15T09:31:03.755Z,19.75
2022-11-15T09:33:55.550Z,19.70
2022-11-15T09:36:44.429Z,19.27
2022-11-15T09:39:34.832Z,15.40
2022-11-15T09:42:50.326Z,19.33
2022-11-15T09:45:50.407Z,19.67
2022-11-15T09:48:56.680Z,18.10
2022-11-15T09:51:55.089Z,19.75
2022-11-15T09:57:28.908Z,21.00
2022-11-15T10:00:45.310Z,22.25
2022-11-15T10:03:17.963Z,21.42
2022-11-15T10:05:49.616Z,22.25
2022-11-15T10:08:44.054Z,24.35
2022-11-15T10:14:15.512Z,24.15
2022-11-15T10:17:18.979Z,25.52
2022-11-15T10:20:05.965Z,20.15
2022-11-15T10:22:41.880Z,24.05
2022-11-15T10:25:23.199Z,27.05
2022-11-15T10:28:17.267Z,19.98
2022-11-15T10:30:53.395Z,24.40
2022-11-15T10:33:36.301Z,26.00
2022-11-15T10:36:21.313Z,24.90
2022-11-15T10:39:00.480Z,26.67
2022-11-15T10:41:37.058Z,26.60
2022-11-15T10:44:20.549Z,26.98
2022-11-15T10:47:07.759Z,27.77
2022-11-15T10:49:37.651Z,24.88
2022-11-15T10:52:20.334Z,20.90
2022-11-15T10:54:54.288Z,26.83
2022-11-15T10:57:26.111Z,24.10
2022-11-15T10:59:58.887Z,27.48
2022-11-15T11:02:34.173Z,27.42
2022-11-15T11:05:07.229Z,25.35
2022-11-15T11:07:37.979Z,23.52
2022-11-15T11:10:51.028Z,27.98
2022-11-15T11:13:24.305Z,25.47
2022-11-15T11:16:16.969Z,26.40
2022-11-15T11:18:54.219Z,27.67
2022-11-15T11:21:39.758Z,28.13
2022-11-15T11:24:17.379Z,28.92
2022-11-15T11:26:57.183Z,24.73
2022-11-15T11:29:42.547Z,24.52
2022-11-15T11:32:30.355Z,26.52
2022-11-15T11:35:11.726Z,30.00
2022-11-15T11:37:48.026Z,26.60
2022-11-15T11:40:30.447Z,24.77
2022-11-15T11:43:09.242Z,25.33
2022-11-15T11:46:02.073Z,25.05
2022-11-15T11:48:43.852Z,25.85
2022-11-15T11:51:22.886Z,30.05
2022-11-15T11:53:57.716Z,26.05
2022-11-15T11:56:30.746Z,25.92
2022-11-15T11:59:08.702Z,27.55
2022-11-15T12:01:43.985Z,27.45
2022-11-15T12:04:20.441Z,30.02
2022-11-15T12:06:56.230Z,31.25
2022-11-15T12:09:33.394Z,29.75
2022-11-15T12:12:11.052Z,30.95
2022-11-15T12:14:48.040Z,27.02
2022-11-15T12:17:22.401Z,25.48
2022-11-15T12:19:51.955Z,26.58
2022-11-15T12:22:26.488Z,29.73
2022-11-15T12:25:03.052Z,29.77
2022-11-15T12:27:39.629Z,31.42
2022-11-15T12:30:14.575Z,27.52
2022-11-15T12:32:53.885Z,30.27
2022-11-15T12:35:29.768Z,25.60
2022-11-15T12:38:00.829Z,28.30
2022-11-15T12:40:36.832Z,29.33
2022-11-15T12:43:35.674Z,29.42
2022-11-15T12:46:07.810Z,32.38
2022-11-15T12:48:58.855Z,27.85
2022-11-15T12:52:08.154Z,29.77
2022-11-15T12:55:25.701Z,28.88
2022-11-15T12:57:55.136Z,28.30
2022-11-15T13:00:48.492Z,29.35
2022-11-15T13:03:31.597Z,29.92
2022-11-15T13:06:33.555Z,33.33
2022-11-15T13:09:04.616Z,30.23
2022-11-15T13:11:55.326Z,27.20
2022-11-15T13:14:47.632Z,31.65
2022-11-15T13:17:41.314Z,34.33
2022-11-15T13:20:28.124Z,35.58
2022-11-15T13:23:07.689Z,30.38
2022-11-15T13:26:05.232Z,28.38
2022-11-15T13:28:40.061Z,29.10
2022-11-15T13:31:40.400Z,32.20
2022-11-15T13:34:53.433Z,27.65
2022-11-15T13:37:32.312Z,30.98
2022-11-15T13:40:22.224Z,26.95
2022-11-15T13:42:52.943Z,27.80
2022-11-15T13:45:40.263Z,29.17
2022-11-15T13:48:23.090Z,26.15
2022-11-15T13:50:54.604Z,29.83
2022-11-15T13:53:30.740Z,29.05
2022-11-15T13:56:05.065Z,29.00
2022-11-15T13:58:37.898Z,31.45
2022-11-15T14:01:20.372Z,29.07
2022-11-15T14:03:54.824Z,32.15
2022-11-15T14:06:29.705Z,31.20
2022-11-15T14:09:19.675Z,29.38
2022-11-15T14:11:55.425Z,32.38
2022-11-15T14:14:32.577Z,31.67
2022-11-15T14:17:37.109Z,32.17
2022-11-15T14:20:22.695Z,30.00
2022-11-15T14:22:56.941Z,34.35
2022-11-15T14:25:29.155Z,37.50
2022-11-15T14:28:38.559Z,33.80
2022-11-15T14:31:18.063Z,36.83
2022-11-15T14:33:50.808Z,33.72
2022-11-15T14:36:23.357Z,33.33
2022-11-15T14:52:58.114Z,33.53
2022-11-15T14:55:29.634Z,36.00
2022-11-15T14:57:58.727Z,36.92
2022-11-15T15:00:33.849Z,31.85
2022-11-15T15:03:05.360Z,36.17
2022-11-15T15:05:37.658Z,32.42
2022-11-15T15:08:09.074Z,31.75
2022-11-15T15:10:41.625Z,31.58
2022-11-15T15:13:19.393Z,37.70
2022-11-15T15:15:49.080Z,36.22
2022-11-15T15:18:18.528Z,39.33
2022-11-15T15:20:57.786Z,37.95
2022-11-15T15:23:30.400Z,45.35
2022-11-15T15:25:59.664Z,38.85
2022-11-15T15:28:34.207Z,38.75
2022-11-15T15:31:04.761Z,44.40
2022-11-15T15:33:34.611Z,42.60
2022-11-15T15:36:04.779Z,43.83
2022-11-15T15:38:35.666Z,41.30
2022-11-15T15:41:05.534Z,35.45
2022-11-15T15:43:35.086Z,47.45
2022-11-15T15:46:04.298Z,37.63
2022-11-15T15:48:34.979Z,40.72
2022-11-15T15:51:13.011Z,34.85
2022-11-15T15:53:46.519Z,35.00
2022-11-15T15:56:16.181Z,40.10
2022-11-15T15:58:46.593Z,35.22
2022-11-15T16:01:16.490Z,36.13
2022-11-15T16:03:45.970Z,35.17
2022-11-15T16:06:36.409Z,41.15
2022-11-15T16:09:15.287Z,35.15
2022-11-15T16:11:46.903Z,32.00
2022-11-15T16:14:16.453Z,34.05
2022-11-15T16:16:45.708Z,36.22
2022-11-15T16:19:14.773Z,33.50
2022-11-15T16:21:43.947Z,40.33
2022-11-15T16:24:14.951Z,31.33
2022-11-15T16:26:44.275Z,32.92
2022-11-15T16:29:13.604Z,34.00
2022-11-15T16:31:43.412Z,29.65
2022-11-15T16:34:13.729Z,32.92
2022-11-15T16:36:42.913Z,30.10
2022-11-15T16:39:18.150Z,31.33
2022-11-15T16:41:48.004Z,31.58
2022-11-15T16:44:17.733Z,33.20
2022-11-15T16:46:52.897Z,31.88
2022-11-15T16:49:26.620Z,35.42
2022-11-15T16:51:56.987Z,32.30
2022-11-15T16:54:27.200Z,29.25
2022-11-15T16:56:56.488Z,32.83
2022-11-15T16:59:26.594Z,28.38
2022-11-15T17:01:55.720Z,32.08
2022-11-15T17:04:33.245Z,29.20
2022-11-15T17:07:03.413Z,35.35
2022-11-15T17:09:34.701Z,32.63
2022-11-15T17:12:04.396Z,30.73
2022-11-15T17:14:33.550Z,30.10
2022-11-15T17:17:03.234Z,30.90
2022-11-15T17:19:32.674Z,29.58
2022-11-15T17:22:02.111Z,27.55
2022-11-15T17:24:33.120Z,30.65
2022-11-15T17:27:02.426Z,33.08
2022-11-15T17:29:31.621Z,32.58
2022-11-15T17:32:00.638Z,28.55
2022-11-15T17:34:30.418Z,27.55
2022-11-15T17:36:59.772Z,31.10
2022-11-15T17:39:29.258Z,28.15
2022-11-15T17:41:59.700Z,31.38
2022-11-15T17:44:29.267Z,32.25
2022-11-15T17:46:58.592Z,28.73
2022-11-15T17:49:28.059Z,28.65
2022-11-15T17:51:57.737Z,29.00
2022-11-15T17:54:26.767Z,26.90
2022-11-15T17:56:56.665Z,28.98
2022-11-15T17:59:27.752Z,31.23
2022-11-15T18:01:59.475Z,28.60
2022-11-15T18:04:29.337Z,26.52
2022-11-15T18:06:59.573Z,35.65
2022-11-15T18:09:28.943Z,30.67
2022-11-15T18:11:59.498Z,29.90
2022-11-15T18:14:31.716Z,30.85
2022-11-15T18:17:01.122Z,33.05
2022-11-15T18:19:30.748Z,33.45
2022-11-15T18:22:01.731Z,30.52
2022-11-15T18:24:32.658Z,29.42
2022-11-15T18:27:03.457Z,31.95
2022-11-15T18:29:34.686Z,28.73
2022-11-15T18:32:06.543Z,28.90
2022-11-15T18:34:36.039Z,29.48
2022-11-15T18:37:06.067Z,30.40
2022-11-15T18:39:35.285Z,31.58
2022-11-15T18:42:06.361Z,30.05
2022-11-15T18:44:36.999Z,26.08
2022-11-15T18:47:07.948Z,28.73
2022-11-15T18:49:39.541Z,27.85
2022-11-15T18:52:09.641Z,27.65
2022-11-15T18:54:40.316Z,30.33
2022-11-15T18:57:09.930Z,28.85
2022-11-15T18:59:40.979Z,30.35
2022-11-15T19:02:13.015Z,27.70
2022-11-15T19:04:42.895Z,29.63
2022-11-15T19:07:12.486Z,24.33
2022-11-15T19:09:41.843Z,29.63
2022-11-15T19:12:11.267Z,27.90
2022-11-15T19:14:42.296Z,28.48
2022-11-15T19:17:11.227Z,28.80
2022-11-15T19:19:40.704Z,26.77
2022-11-15T19:22:10.452Z,30.23
2022-11-15T19:24:40.291Z,25.65
2022-11-15T19:27:11.564Z,30.25
2022-11-15T19:29:42.782Z,30.40
2022-11-15T19:32:12.884Z,27.17
2022-11-15T19:34:43.364Z,29.35
2022-11-15T19:37:13.152Z,31.80
2022-11-15T19:39:42.859Z,27.20
2022-11-15T19:42:12.623Z,26.65
2022-11-15T19:44:43.177Z,26.55
2022-11-15T19:47:13.018Z,26.80
2022-11-15T19:49:42.087Z,28.85
2022-11-15T19:52:12.359Z,23.90
2022-11-15T19:54:42.066Z,26.90
2022-11-15T19:57:11.756Z,27.85
2022-11-15T19:59:42.716Z,28.33
2022-11-15T20:02:13.396Z,27.23
2022-11-15T20:04:43.469Z,28.77
2022-11-15T20:07:13.093Z,26.30
2022-11-15T20:09:42.779Z,28.67
2022-11-15T20:12:12.252Z,29.90
2022-11-15T20:14:47.285Z,27.05
2022-11-15T20:17:17.702Z,29.35
2022-11-15T20:19:47.244Z,27.98
2022-11-15T20:22:16.287Z,25.60
2022-11-15T20:24:46.203Z,24.65
2022-11-15T20:27:15.707Z,28.50
2022-11-15T20:29:46.646Z,25.60
2022-11-15T20:32:15.947Z,24.27
2022-11-15T20:34:47.946Z,25.67
2022-11-15T20:37:21.148Z,25.10
2022-11-15T20:39:50.205Z,25.63
2022-11-15T20:42:20.396Z,28.65
2022-11-15T20:44:50.850Z,25.50
2022-11-15T20:47:20.993Z,24.45
2022-11-15T20:49:50.550Z,25.88
2022-11-15T20:52:19.669Z,25.90
2022-11-15T20:54:49.519Z,26.88
2022-11-15T20:57:18.894Z,28.30
2022-11-15T20:59:50.808Z,26.58
2022-11-15T21:02:21.138Z,24.10
2022-11-15T21:04:50.790Z,24.67
2022-11-15T21:07:20.198Z,31.00
2022-11-15T21:10:07.813Z,26.73
2022-11-15T21:12:38.010Z,26.63
2022-11-15T21:15:09.429Z,32.67
2022-11-15T21:17:38.974Z,25.27
2022-11-15T21:20:09.068Z,27.67
2022-11-15T21:22:39.786Z,25.67
2022-11-15T21:25:09.666Z,28.55
2022-11-15T21:27:38.756Z,29.67
2022-11-15T21:30:10.651Z,26.85
2022-11-15T21:32:40.897Z,30.15
2022-11-15T21:35:10.905Z,27.02
2022-11-15T21:37:40.231Z,26.80
2022-11-15T21:40:11.527Z,30.52
2022-11-15T21:42:41.180Z,28.40
2022-11-15T21:45:12.658Z,30.38
2022-11-15T21:47:46.111Z,25.30
2022-11-15T21:50:15.971Z,23.65
2022-11-15T21:52:47.051Z,28.40
2022-11-15T21:55:16.148Z,26.60
2022-11-15T21:57:45.459Z,28.33
2022-11-15T22:00:35.689Z,24.20
2022-11-15T22:03:05.546Z,26.23
2022-11-15T22:05:35.916Z,25.05
2022-11-15T22:08:05.380Z,26.17
2022-11-15T22:10:34.623Z,26.75
2022-11-15T22:13:03.735Z,26.33
2022-11-15T22:15:34.160Z,25.52
2022-11-15T22:18:03.586Z,29.38
2022-11-15T22:20:48.513Z,22.98
2022-11-15T22:23:17.698Z,21.17
2022-11-15T22:25:47.257Z,21.30
2022-11-15T22:28:16.256Z,27.02
2022-11-15T22:30:48.306Z,24.50
2022-11-15T22:33:19.178Z,24.80
2022-11-15T22:35:49.034Z,23.65
2022-11-15T22:38:18.347Z,26.75
2022-11-15T22:40:48.040Z,21.13
2022-11-15T22:43:20.276Z,23.40
2022-11-15T22:45:53.638Z,25.02
2022-11-15T22:48:25.713Z,22.15
2022-11-15T22:50:56.568Z,21.17
2022-11-15T22:53:28.183Z,24.45
2022-11-15T22:56:00.225Z,24.77
2022-11-15T22:58:32.646Z,25.58
2022-11-15T23:01:06.195Z,27.10
2022-11-15T23:03:35.952Z,26.08
2022-11-15T23:06:07.287Z,25.38
2022-11-15T23:08:37.518Z,25.58
2022-11-15T23:11:25.648Z,23.60
2022-11-15T23:14:18.153Z,27.30
2022-11-15T23:17:21.912Z,24.67
2022-11-15T23:20:07.502Z,27.95
2022-11-15T23:22:54.506Z,23.77
2022-11-15T23:25:23.986Z,27.30
2022-11-15T23:27:53.164Z,24.75
2022-11-15T23:30:40.356Z,28.20
2022-11-15T23:33:44.392Z,26.50
2022-11-15T23:36:56.854Z,23.58
2022-11-15T23:39:41.270Z,26.58
2022-11-15T23:42:27.342Z,23.17
2022-11-15T23:45:29.710Z,24.70
2022-11-15T23:48:54.569Z,26.35
2022-11-15T23:51:26.344Z,27.92
2022-11-15T23:53:55.944Z,26.40
2022-11-15T23:56:25.184Z,27.92
2022-11-15T23:58:54.245Z,27.15
